Nearby METAR Reports for Burr Ridge, IL

 

KMDW - Chicago, Illinois, USA
Distance from station: ENE 8mi, 13km
Updated: Sat, 23-Feb-2019 2:53pm MST
Light rain, Mist, Overcast
Light rain, Mist, Overcast
 Wind from E
Wind: E 9 mph , 15 km/h
Temperature: 36°F , 2°C
Wind Chill: 29°F , -2°C
Dew Point: 36°F , 2°C
Humidity: 100%
Barometer: 29.73 inHg , 1006.8 hPa
Summary: Light rain, Mist
Clouds: Overcast
Visibility: 2 1/2 miles , 4 km
Cloud details: Overcast 400 ft
2019/02/23 21:53 KMDW 232153Z 10008KT 2 1/2SM -RA BR OVC004 02/02 A2973 RMK AO2 DZE18RAB18 SLP076 P0000 T00220022 $
KLOT - Romeoville/Chi, Illinois, USA
Distance from station: SW 15mi, 24km
Updated: Sat, 23-Feb-2019 2:55pm MST
Light rain, Overcast
Light rain, Overcast
 Wind from ESE
Wind: ESE 9 mph , 15 km/h
Temperature: 37°F , 3°C
Wind Chill: 30°F , -1°C
Dew Point: 37°F , 3°C
Humidity: 100%
Barometer: 29.71 inHg , 1006.1 hPa
Summary: Light rain
Clouds: Overcast
Visibility: 2 miles , 3 km
Cloud details: Overcast 500 ft
2019/02/23 21:55 KLOT 232155Z AUTO 11008KT 2SM -RA OVC005 03/03 A2971 RMK AO2 T00330030
 
KORD - Chicago O'hare, Illinois, USA
Distance from station: N 16mi, 25km
Updated: Sat, 23-Feb-2019 2:51pm MST
Light drizzle, Mist, Overcast
Light drizzle, Mist, Overcast
 Wind from E
Wind: E 9 mph , 15 km/h
Temperature: 37°F , 3°C
Wind Chill: 30°F , -1°C
Dew Point: 36°F , 2°C
Humidity: 93%
Barometer: 29.73 inHg , 1006.8 hPa
Summary: Light drizzle, Mist
Clouds: Overcast
Visibility: 1 3/4 miles , 2.8 km
Cloud details: Overcast 400 ft
2019/02/23 21:51 KORD 232151Z 10008KT 1 3/4SM -DZ BR OVC004 03/02 A2973 RMK AO2 RAE13DZB13 SLP071 P0000 T00330017
KDPA - Chicago/Dupage, Illinois, USA
Distance from station: WNW 21mi, 34km
Updated: Sat, 23-Feb-2019 3:09pm MST
Mist, Overcast
Mist, Overcast
 Wind from E
Wind: E 9 mph , 15 km/h
Temperature: 37°F , 3°C
Wind Chill: 30°F , -1°C
Dew Point: 34°F , 1°C
Humidity: 87%
Barometer: 29.69 inHg , 1005.4 hPa
Summary: Mist
Clouds: Overcast
Visibility: 2 miles , 3 km
Cloud details: Overcast 400 ft
2019/02/23 22:09 KDPA 232209Z 09008KT 2SM BR OVC004 03/01 A2969 RMK AO2 T00280011 $
 
KJOT - Joliet, Illinois, USA
Distance from station: SW 22mi, 36km
Updated: Sat, 23-Feb-2019 3:15pm MST
Light drizzle, Overcast
Light drizzle, Overcast
 Wind from ESE
Wind: ESE 9 mph , 15 km/h
Temperature: 41°F , 5°C
Wind Chill: 35°F , 2°C
Dew Point: 41°F , 5°C
Humidity: 100%
Barometer: 29.69 inHg , 1005.4 hPa
Summary: Light Drizzle
Clouds: Overcast
Visibility: 2 1/2 miles , 4 km
Cloud details: Overcast 400 ft
2019/02/23 22:15 KJOT 232215Z AUTO 11008KT 2 1/2SM -DZ OVC004 05/05 A2969 RMK AO2 T00450045
KIGQ - Chicago/Lansing, Illinois, USA
Distance from station: SE 24mi, 39km
Updated: Sat, 23-Feb-2019 3:15pm MST
Mist, Overcast
Mist, Overcast
 Wind from calm
Wind: Calm
Temperature: 37°F , 3°C
Dew Point: 37°F , 3°C
Humidity: 100%
Barometer: 29.72 inHg , 1006.4 hPa
Summary: Mist
Clouds: Overcast
Visibility: 1 mile , 2 km
Cloud details: Overcast 300 ft
2019/02/23 22:15 KIGQ 232215Z AUTO 00000KT 1SM BR OVC003 03/03 A2972 RMK AO2 T00310031
 
KPWK - Palwaukee, Illinois, USA
Distance from station: N 25mi, 40km
Updated: Sat, 23-Feb-2019 2:52pm MST
Mist, Overcast
Mist, Overcast
 Wind from ESE
Wind: ESE 9 mph , 15 km/h
Temperature: 36°F , 2°C
Wind Chill: 29°F , -2°C
Dew Point: 34°F , 1°C
Humidity: 93%
Barometer: 29.75 inHg , 1007.5 hPa
Summary: Mist
Clouds: Overcast
Visibility: 2 1/2 miles , 4 km
Cloud details: Overcast 400 ft
2019/02/23 21:52 KPWK 232152Z 12008KT 2 1/2SM BR OVC004 02/01 A2975 RMK AO2 UPE2055 SLP079 P0000 T00220006
KGYY - Gary Regional, Indiana, USA
Distance from station: ESE 27mi, 43km
Updated: Sat, 23-Feb-2019 2:45pm MST
Mist, Overcast
Mist, Overcast
 Wind from ESE
Wind: ESE 6 mph , 9 km/h
Temperature: 37°F , 3°C
Wind Chill: 32°F , 0°C
Dew Point: 37°F , 3°C
Humidity: 100%
Barometer: 29.75 inHg , 1007.5 hPa
Summary: Mist
Clouds: Overcast
Visibility: 1 mile , 2 km
Cloud details: Overcast 300 ft
2019/02/23 21:45 KGYY 232145Z 12005KT 1SM R30/5500FT BR OVC003 03/03 A2975 RMK RAE17
 
KARR - Chicago/Aurora, Illinois, USA
Distance from station: W 30mi, 48km
Updated: Sat, 23-Feb-2019 3:08pm MST
Mist, Overcast
Mist, Overcast
 Wind from ENE
Wind: ENE 8 mph , 13 km/h
Temperature: 37°F , 3°C
Wind Chill: 31°F , -1°C
Dew Point: 36°F , 2°C
Humidity: 93%
Barometer: 29.67 inHg , 1004.7 hPa
Summary: Mist
Clouds: Overcast
Visibility: 1 3/4 miles , 2.8 km
Cloud details: Overcast 400 ft
2019/02/23 22:08 KARR 232208Z AUTO 06007KT 1 3/4SM BR OVC004 03/02 A2967 RMK AO2 PRESFR T00330022 TSNO
KC09 - Morris-Washburn, Illinois, USA
Distance from station: SW 35mi, 56km
Updated: Sat, 23-Feb-2019 2:55pm MST
Light rain, Overcast
Light rain, Overcast
 Wind from ESE
Wind: ESE 10 mph , 17 km/h
Temperature: 37°F , 3°C
Wind Chill: 30°F , -1°C
Dew Point: 37°F , 3°C
Humidity: 100%
Barometer: 29.69 inHg , 1005.4 hPa
Summary: Light rain
Clouds: Overcast
Visibility: 1 3/4 miles , 2.8 km
Cloud details: Overcast 400 ft
2019/02/23 21:55 KC09 232155Z AUTO 11009KT 1 3/4SM -RA OVC004 03/03 A2969 RMK AO2 T00330031
 
KDKB - De Kalb, Illinois, USA
Distance from station: WNW 43mi, 69km
Updated: Sat, 23-Feb-2019 3:15pm MST
Mist, Overcast
Mist, Overcast
 Wind from E
Wind: E 13 mph , 20 km/h
Temperature: 36°F , 2°C
Wind Chill: 27°F , -3°C
Dew Point: 36°F , 2°C
Humidity: 100%
Barometer: 29.67 inHg , 1004.7 hPa
Summary: Mist
Clouds: Overcast
Visibility: 1 mile , 2 km
Cloud details: Overcast 300 ft
2019/02/23 22:15 KDKB 232215Z AUTO 09011KT 1SM BR OVC003 02/02 A2967 RMK AO2 T00150015
KUGN - Waukegan, Illinois, USA
Distance from station: N 46mi, 73km
Updated: Sat, 23-Feb-2019 2:55pm MST
Mist, Overcast
Mist, Overcast
 Wind from ESE
Wind: ESE 12 mph , 19 km/h
Temperature: 34°F , 1°C
Wind Chill: 25°F , -4°C
Dew Point: 32°F , 0°C
Humidity: 93%
Barometer: 29.74 inHg , 1007.1 hPa
Summary: Mist
Clouds: Overcast
Visibility: 3/4 mile , 1.2 km
Cloud details: Overcast 300 ft
2019/02/23 21:55 KUGN 232155Z 11010KT 3/4SM BR OVC003 01/00 A2974 RMK AO2 SLP080 T00110000
 
KIKK - Kankakee, Illinois, USA
Distance from station: S 48mi, 77km
Updated: Sat, 23-Feb-2019 3:15pm MST
Mist, Overcast
Mist, Overcast
 
Temperature: 41°F , 5°C
Dew Point: 39°F , 4°C
Humidity: 93%
Barometer: 29.70 inHg , 1005.8 hPa
Summary: Mist
Clouds: Overcast
Visibility: 1 1/2 miles , 2.4 km
Cloud details: Overcast 300 ft
2019/02/23 22:15 KIKK 232215Z 1 1/2SM BR OVC003 05/04 A2970 RMK AO2 T00450042